Time;durP1;ratioP1;P1;durP2;ratioP2;P2;SDS_P1;SDS_P2;PMS_P1;PMS_P2;Temp;Humidity;BMP_temperature;BMP_pressure;BME280_temperature;BME280_humidity;BME280_pressure;Samples;Min_cycle;Max_cycle;Signal;HPM_P1;HPM_P2
2022/07/31 00:01:42;;;;;;;2.28;2.08;;;;;;;;;;5074006;28;20286;-87
2022/07/31 00:04:10;;;;;;;3.53;1.85;;;;;;;;;;5073198;28;20237;-87
2022/07/31 00:06:38;;;;;;;2.95;1.70;;;;;;;;;;5073592;28;20240;-87
2022/07/31 00:09:05;;;;;;;2.65;1.90;;;;;;;;;;5073487;28;20286;-87
2022/07/31 00:11:32;;;;;;;3.33;1.73;;;;;;;;;;5073798;28;20212;-87
2022/07/31 00:13:59;;;;;;;1.80;1.70;;;;;;;;;;5071904;28;20233;-87
2022/07/31 00:16:26;;;;;;;2.33;1.90;;;;;;;;;;5073770;28;20202;-87
2022/07/31 00:18:53;;;;;;;3.00;2.00;;;;;;;;;;5073061;28;20237;-87
2022/07/31 00:21:21;;;;;;;2.55;1.98;;;;;;;;;;5073881;28;20206;-87
2022/07/31 00:23:48;;;;;;;2.27;2.07;;;;;;;;;;5073225;28;20232;-88
2022/07/31 00:26:15;;;;;;;1.83;1.73;;;;;;;;;;5073412;28;20225;-86
2022/07/31 00:28:43;;;;;;;2.20;2.00;;;;;;;;;;5072967;28;20244;-88
2022/07/31 00:31:10;;;;;;;8.60;1.73;;;;;;;;;;5073282;28;20205;-87
2022/07/31 00:33:37;;;;;;;3.63;2.00;;;;;;;;;;5073081;28;20247;-87
2022/07/31 00:36:04;;;;;;;2.23;2.03;;;;;;;;;;5073352;28;20681;-86
2022/07/31 00:38:33;;;;;;;1.93;1.83;;;;;;;;;;5072819;28;20244;-87
2022/07/31 00:41:00;;;;;;;2.00;1.90;;;;;;;;;;5074054;28;20251;-87
2022/07/31 00:43:27;;;;;;;1.90;1.80;;;;;;;;;;5073441;28;20233;-86
2022/07/31 00:45:56;;;;;;;2.70;1.90;;;;;;;;;;5073111;28;20218;-87
2022/07/31 00:48:23;;;;;;;3.77;2.20;;;;;;;;;;5072688;28;20237;-87
2022/07/31 00:50:50;;;;;;;5.97;3.10;;;;;;;;;;5073228;28;20205;-87
2022/07/31 00:53:17;;;;;;;3.13;1.80;;;;;;;;;;5072791;28;20453;-87
2022/07/31 00:55:46;;;;;;;2.17;1.97;;;;;;;;;;5073595;28;20224;-87
2022/07/31 00:58:13;;;;;;;2.10;1.90;;;;;;;;;;5072691;28;20241;-87
2022/07/31 01:00:40;;;;;;;1.88;1.77;;;;;;;;;;5053399;28;20213;-87
2022/07/31 01:03:07;;;;;;;2.17;1.97;;;;;;;;;;5057715;28;20225;-87
2022/07/31 01:05:34;;;;;;;2.17;1.87;;;;;;;;;;5048715;28;20614;-88
2022/07/31 01:08:01;;;;;;;1.77;1.67;;;;;;;;;;5068946;28;20240;-88
2022/07/31 01:10:36;;;;;;;2.23;2.13;;;;;;;;;;5072994;28;20209;-87
2022/07/31 01:13:07;;;;;;;2.20;2.00;;;;;;;;;;5072154;28;20302;-87
2022/07/31 01:15:35;;;;;;;2.07;1.87;;;;;;;;;;5072879;28;20194;-88
2022/07/31 01:18:02;;;;;;;4.40;2.10;;;;;;;;;;5072437;28;20237;-87
2022/07/31 01:20:29;;;;;;;2.67;2.17;;;;;;;;;;5072333;28;20204;-86
2022/07/31 01:22:59;;;;;;;2.10;2.00;;;;;;;;;;5071873;28;20607;-87
2022/07/31 01:25:33;;;;;;;2.63;2.00;;;;;;;;;;5072223;28;20201;-87
2022/07/31 01:28:04;;;;;;;3.27;2.00;;;;;;;;;;5071886;28;20241;-89
2022/07/31 01:30:35;;;;;;;3.23;2.00;;;;;;;;;;5072506;28;20607;-87
2022/07/31 01:33:06;;;;;;;2.20;2.07;;;;;;;;;;5071899;28;20312;-87
2022/07/31 01:35:35;;;;;;;2.30;1.97;;;;;;;;;;5072719;28;20225;-87
2022/07/31 01:38:05;;;;;;;2.07;1.93;;;;;;;;;;5058331;28;20242;-87
2022/07/31 01:40:34;;;;;;;2.00;1.90;;;;;;;;;;5035084;28;20210;-87
2022/07/31 01:43:03;;;;;;;3.07;2.33;;;;;;;;;;5031724;28;20264;-87
2022/07/31 01:45:31;;;;;;;2.43;1.90;;;;;;;;;;5032225;28;20546;-87
2022/07/31 01:48:00;;;;;;;2.50;2.30;;;;;;;;;;5031597;28;20246;-87
2022/07/31 01:50:28;;;;;;;2.33;1.90;;;;;;;;;;5032413;28;20202;-87
2022/07/31 01:52:57;;;;;;;2.50;2.10;;;;;;;;;;5031681;28;20230;-88
2022/07/31 01:55:25;;;;;;;2.20;1.80;;;;;;;;;;5032484;28;20210;-87
2022/07/31 01:57:53;;;;;;;2.90;1.80;;;;;;;;;;5031587;28;20261;-87
2022/07/31 02:00:20;;;;;;;2.10;1.83;;;;;;;;;;5032243;28;20206;-87
2022/07/31 02:02:48;;;;;;;2.07;1.97;;;;;;;;;;5031441;28;20730;-88
2022/07/31 02:05:18;;;;;;;2.13;1.93;;;;;;;;;;5032449;28;20682;-87
2022/07/31 02:07:45;;;;;;;3.07;1.80;;;;;;;;;;5031561;28;20605;-87
2022/07/31 02:10:14;;;;;;;2.20;2.00;;;;;;;;;;5032017;28;20202;-87
2022/07/31 02:12:42;;;;;;;2.20;2.10;;;;;;;;;;5031112;28;20226;-88
2022/07/31 02:15:10;;;;;;;2.70;2.07;;;;;;;;;;5032046;28;20210;-87
2022/07/31 02:17:38;;;;;;;2.00;1.90;;;;;;;;;;5031563;28;20241;-87
2022/07/31 02:20:06;;;;;;;3.73;2.00;;;;;;;;;;5032170;28;20207;-87
2022/07/31 02:22:35;;;;;;;4.10;2.27;;;;;;;;;;5031604;28;20230;-86
2022/07/31 02:25:02;;;;;;;2.50;2.20;;;;;;;;;;5031973;28;20701;-87
2022/07/31 02:27:30;;;;;;;2.33;2.10;;;;;;;;;;5031641;28;20238;-87
2022/07/31 02:29:59;;;;;;;2.23;2.10;;;;;;;;;;5032301;28;20573;-87
2022/07/31 02:32:26;;;;;;;2.67;2.43;;;;;;;;;;5031841;28;20234;-86
2022/07/31 02:34:55;;;;;;;3.83;2.23;;;;;;;;;;5032533;28;20218;-87
2022/07/31 02:37:22;;;;;;;2.50;2.30;;;;;;;;;;5033581;28;20260;-88
2022/07/31 02:39:53;;;;;;;2.30;2.10;;;;;;;;;;5039075;28;20218;-87
2022/07/31 02:42:20;;;;;;;2.67;2.40;;;;;;;;;;5054820;28;20230;-90
2022/07/31 02:44:47;;;;;;;3.47;2.40;;;;;;;;;;5051478;28;20306;-88
2022/07/31 02:47:14;;;;;;;3.47;2.30;;;;;;;;;;5034882;28;20243;-88
2022/07/31 02:49:42;;;;;;;2.93;2.20;;;;;;;;;;5035776;28;20221;-87
2022/07/31 02:52:09;;;;;;;2.40;2.17;;;;;;;;;;5035057;28;20596;-87
2022/07/31 02:54:38;;;;;;;2.50;2.30;;;;;;;;;;5035661;28;20273;-87
2022/07/31 02:57:06;;;;;;;2.93;2.30;;;;;;;;;;5038713;28;20220;-87
2022/07/31 02:59:37;;;;;;;7.07;2.50;;;;;;;;;;5043735;28;20218;-88
2022/07/31 03:02:04;;;;;;;3.00;2.70;;;;;;;;;;5036376;28;20202;-88
2022/07/31 03:04:31;;;;;;;2.70;2.40;;;;;;;;;;5035394;28;20219;-87
2022/07/31 03:07:10;;;;;;;4.97;2.50;;;;;;;;;;5034147;28;20239;-87
2022/07/31 03:09:37;;;;;;;2.73;2.40;;;;;;;;;;5035434;28;20227;-87
2022/07/31 03:12:05;;;;;;;4.40;2.27;;;;;;;;;;5034368;28;20213;-87
2022/07/31 03:14:34;;;;;;;2.40;2.20;;;;;;;;;;5035159;28;20211;-88
2022/07/31 03:17:02;;;;;;;3.97;2.30;;;;;;;;;;5034430;28;20229;-87
2022/07/31 03:19:29;;;;;;;2.83;2.57;;;;;;;;;;5035011;28;20537;-88
2022/07/31 03:21:56;;;;;;;2.40;2.20;;;;;;;;;;5034478;28;20210;-88
2022/07/31 03:24:26;;;;;;;2.37;2.10;;;;;;;;;;5036143;28;20245;-87
2022/07/31 03:26:53;;;;;;;2.20;2.00;;;;;;;;;;5035981;28;20248;-86
2022/07/31 03:29:20;;;;;;;3.00;2.20;;;;;;;;;;5034795;28;20573;-86
2022/07/31 03:31:48;;;;;;;2.60;2.40;;;;;;;;;;5034728;28;20683;-86
2022/07/31 03:34:16;;;;;;;2.43;2.23;;;;;;;;;;5034105;28;20234;-86
2022/07/31 03:36:43;;;;;;;5.07;3.07;;;;;;;;;;5034817;28;20257;-86
2022/07/31 03:39:10;;;;;;;4.40;2.77;;;;;;;;;;5033869;28;20234;-88
2022/07/31 03:41:37;;;;;;;3.73;2.70;;;;;;;;;;5034643;28;20207;-87
2022/07/31 03:44:05;;;;;;;2.87;2.30;;;;;;;;;;5033898;28;20714;-87
2022/07/31 03:46:32;;;;;;;3.10;2.80;;;;;;;;;;5035317;28;20573;-88
2022/07/31 03:49:01;;;;;;;2.43;2.23;;;;;;;;;;5033597;28;20730;-86
2022/07/31 03:51:28;;;;;;;3.73;2.57;;;;;;;;;;5034398;28;20579;-88
2022/07/31 03:53:55;;;;;;;2.50;2.30;;;;;;;;;;5033748;28;20234;-87
2022/07/31 03:56:23;;;;;;;2.43;2.33;;;;;;;;;;5034353;28;20218;-90
2022/07/31 03:58:50;;;;;;;3.17;2.87;;;;;;;;;;5033602;28;20242;-86
2022/07/31 04:01:17;;;;;;;3.77;2.50;;;;;;;;;;5034859;28;20213;-87
2022/07/31 04:03:46;;;;;;;2.50;2.30;;;;;;;;;;5034250;28;20611;-88
2022/07/31 04:06:15;;;;;;;2.37;2.17;;;;;;;;;;5034464;28;20214;-87
2022/07/31 04:08:42;;;;;;;2.70;2.50;;;;;;;;;;5033461;28;20608;-88
2022/07/31 04:11:09;;;;;;;2.87;2.53;;;;;;;;;;5034220;28;20206;-89
2022/07/31 04:13:36;;;;;;;2.87;2.67;;;;;;;;;;5033470;28;20238;-88
2022/07/31 04:16:03;;;;;;;2.63;2.43;;;;;;;;;;5034796;28;20583;-88
2022/07/31 04:18:30;;;;;;;2.73;2.53;;;;;;;;;;5033516;28;20246;-88
2022/07/31 04:20:57;;;;;;;3.13;2.83;;;;;;;;;;5034008;28;20211;-88
2022/07/31 04:23:26;;;;;;;3.23;2.30;;;;;;;;;;5033520;28;20237;-87
2022/07/31 04:25:53;;;;;;;2.83;2.37;;;;;;;;;;5034048;28;20222;-89
2022/07/31 04:28:20;;;;;;;2.70;2.50;;;;;;;;;;5033388;28;20235;-88
2022/07/31 04:30:47;;;;;;;3.00;2.80;;;;;;;;;;5034216;28;20221;-88
2022/07/31 04:33:14;;;;;;;3.17;2.50;;;;;;;;;;5024509;28;20233;-87
2022/07/31 04:35:42;;;;;;;3.20;2.40;;;;;;;;;;5033572;28;20234;-89
2022/07/31 04:38:10;;;;;;;2.70;2.50;;;;;;;;;;5032955;28;20235;-88
2022/07/31 04:40:39;;;;;;;4.17;2.50;;;;;;;;;;5033749;28;20206;-88
2022/07/31 04:43:06;;;;;;;6.30;2.90;;;;;;;;;;5024795;28;20322;-88
2022/07/31 04:45:33;;;;;;;3.10;2.70;;;;;;;;;;5034249;28;20207;-89
2022/07/31 04:48:00;;;;;;;3.37;2.63;;;;;;;;;;5026386;28;20273;-88
2022/07/31 04:50:27;;;;;;;3.17;2.73;;;;;;;;;;5034729;28;20214;-87
2022/07/31 04:52:54;;;;;;;2.80;2.50;;;;;;;;;;5034027;28;20241;-87
2022/07/31 04:55:21;;;;;;;3.23;3.00;;;;;;;;;;5033246;28;20203;-88
2022/07/31 04:57:50;;;;;;;2.77;2.47;;;;;;;;;;5032727;28;20238;-88
2022/07/31 05:00:17;;;;;;;2.60;2.40;;;;;;;;;;5032575;28;20573;-88
2022/07/31 05:02:44;;;;;;;3.47;2.73;;;;;;;;;;5032479;28;20261;-87
2022/07/31 05:05:11;;;;;;;6.10;2.60;;;;;;;;;;5033013;28;20199;-88
2022/07/31 05:07:39;;;;;;;3.03;2.60;;;;;;;;;;5032224;28;20254;-88
2022/07/31 05:10:06;;;;;;;2.43;2.23;;;;;;;;;;5033227;28;20211;-88
2022/07/31 05:12:33;;;;;;;3.20;2.90;;;;;;;;;;5032479;28;20253;-87
2022/07/31 05:15:02;;;;;;;3.10;2.80;;;;;;;;;;5033071;28;20210;-88
2022/07/31 05:17:29;;;;;;;2.50;2.30;;;;;;;;;;5032468;28;20234;-89
2022/07/31 05:19:56;;;;;;;3.00;2.70;;;;;;;;;;5032938;28;20206;-87
2022/07/31 05:22:23;;;;;;;2.93;2.60;;;;;;;;;;5032024;28;20300;-88
2022/07/31 05:24:50;;;;;;;5.93;2.60;;;;;;;;;;5032834;28;20264;-88
2022/07/31 05:27:17;;;;;;;2.90;2.63;;;;;;;;;;5066889;22;20263;-82
2022/07/31 05:29:44;;;;;;;2.60;2.40;;;;;;;;;;5083695;28;20228;-83
2022/07/31 05:32:13;;;;;;;5.17;2.57;;;;;;;;;;5091758;28;20247;-83
2022/07/31 05:34:40;;;;;;;3.77;2.70;;;;;;;;;;5092962;28;20208;-83
2022/07/31 05:37:07;;;;;;;2.87;2.60;;;;;;;;;;5092040;28;20286;-83
2022/07/31 05:39:34;;;;;;;3.87;2.80;;;;;;;;;;5092681;28;20204;-83
2022/07/31 05:42:01;;;;;;;2.80;2.60;;;;;;;;;;5092354;28;20208;-83
2022/07/31 05:44:28;;;;;;;2.93;2.70;;;;;;;;;;5093643;28;20212;-83
2022/07/31 05:46:55;;;;;;;2.93;2.63;;;;;;;;;;5092471;28;20224;-83
2022/07/31 05:49:25;;;;;;;2.57;2.37;;;;;;;;;;5095550;28;20584;-84
2022/07/31 05:51:53;;;;;;;5.37;3.10;;;;;;;;;;5091918;28;20228;-83
2022/07/31 05:54:20;;;;;;;2.93;2.70;;;;;;;;;;5098468;28;20224;-83
2022/07/31 05:56:47;;;;;;;3.63;2.80;;;;;;;;;;5093242;28;20596;-83
2022/07/31 05:59:14;;;;;;;6.57;2.60;;;;;;;;;;5097018;28;20234;-81
2022/07/31 06:01:41;;;;;;;2.90;2.57;;;;;;;;;;5095287;28;20214;-83
2022/07/31 06:04:09;;;;;;;3.57;2.53;;;;;;;;;;5091130;28;20232;-81
2022/07/31 06:06:37;;;;;;;3.13;2.30;;;;;;;;;;5096403;28;20203;-80
2022/07/31 06:09:04;;;;;;;3.23;2.63;;;;;;;;;;5073920;28;20267;-83
2022/07/31 06:11:31;;;;;;;2.57;2.37;;;;;;;;;;5082053;28;20219;-82
2022/07/31 06:14:00;;;;;;;2.73;2.53;;;;;;;;;;5096552;28;20224;-81
2022/07/31 06:16:27;;;;;;;2.47;2.37;;;;;;;;;;5086124;28;20350;-83
2022/07/31 06:18:54;;;;;;;2.50;2.30;;;;;;;;;;5076988;28;20244;-81
2022/07/31 06:21:21;;;;;;;2.60;2.40;;;;;;;;;;5076687;28;20213;-81
2022/07/31 06:23:49;;;;;;;2.70;2.50;;;;;;;;;;5083939;28;20240;-82
2022/07/31 06:26:16;;;;;;;3.03;2.50;;;;;;;;;;5095918;28;20212;-82
2022/07/31 06:28:43;;;;;;;6.10;2.27;;;;;;;;;;5091992;28;20236;-82
2022/07/31 06:31:16;;;;;;;3.58;2.50;;;;;;;;;;5095529;28;20243;-83
2022/07/31 06:33:43;;;;;;;2.75;2.33;;;;;;;;;;5097436;28;20297;-83
2022/07/31 06:36:11;;;;;;;4.10;2.80;;;;;;;;;;5099054;28;20321;-82
2022/07/31 06:38:38;;;;;;;3.40;2.72;;;;;;;;;;5099201;28;20241;-82
2022/07/31 06:41:06;;;;;;;2.83;2.60;;;;;;;;;;5099755;28;20209;-80
2022/07/31 06:43:33;;;;;;;7.82;2.45;;;;;;;;;;5099697;28;20232;-81
2022/07/31 06:46:00;;;;;;;4.15;2.50;;;;;;;;;;5098593;28;20205;-82
2022/07/31 06:48:28;;;;;;;3.85;2.40;;;;;;;;;;5097167;28;20244;-81
2022/07/31 06:50:55;;;;;;;2.60;2.40;;;;;;;;;;5096578;28;20204;-81
2022/07/31 06:53:22;;;;;;;2.88;2.30;;;;;;;;;;5096695;28;20233;-81
2022/07/31 06:55:49;;;;;;;3.55;2.50;;;;;;;;;;5088462;28;20197;-81
2022/07/31 06:58:17;;;;;;;2.92;2.08;;;;;;;;;;5093923;28;20706;-82
2022/07/31 07:00:44;;;;;;;3.97;2.83;;;;;;;;;;5092496;28;20230;-82
2022/07/31 07:03:11;;;;;;;2.83;2.20;;;;;;;;;;5112796;28;20249;-81
2022/07/31 07:05:38;;;;;;;2.35;2.00;;;;;;;;;;5113360;28;20200;-82
2022/07/31 07:08:05;;;;;;;3.13;2.28;;;;;;;;;;5111640;28;20236;-82
2022/07/31 07:10:32;;;;;;;2.15;1.95;;;;;;;;;;5112552;28;20208;-82
2022/07/31 07:13:00;;;;;;;2.90;2.33;;;;;;;;;;5107171;28;20239;-82
2022/07/31 07:15:28;;;;;;;5.05;2.17;;;;;;;;;;5102936;28;20202;-81
2022/07/31 07:17:55;;;;;;;2.25;2.05;;;;;;;;;;5094278;28;20224;-80
2022/07/31 07:20:22;;;;;;;4.38;2.28;;;;;;;;;;5112174;28;20194;-81
2022/07/31 07:22:49;;;;;;;2.22;2.03;;;;;;;;;;5088597;28;20239;-82
2022/07/31 07:25:19;;;;;;;2.42;2.00;;;;;;;;;;5089516;28;20213;-81
2022/07/31 07:27:46;;;;;;;3.10;2.08;;;;;;;;;;5086096;28;20236;-82
2022/07/31 07:30:13;;;;;;;2.97;2.10;;;;;;;;;;5081292;28;20225;-82
2022/07/31 07:32:42;;;;;;;3.28;1.65;;;;;;;;;;5087618;28;20239;-80
2022/07/31 07:35:11;;;;;;;2.03;1.83;;;;;;;;;;5085495;28;20209;-83
2022/07/31 07:37:39;;;;;;;2.25;2.00;;;;;;;;;;5075356;28;20229;-81
2022/07/31 07:40:07;;;;;;;2.17;1.98;;;;;;;;;;5087948;28;20644;-80
2022/07/31 07:42:34;;;;;;;2.70;1.90;;;;;;;;;;5090764;28;20235;-81
2022/07/31 07:45:01;;;;;;;2.50;2.08;;;;;;;;;;5094919;28;20278;-81
2022/07/31 07:47:29;;;;;;;2.70;2.08;;;;;;;;;;5092018;28;20240;-81
2022/07/31 07:49:57;;;;;;;3.05;2.17;;;;;;;;;;5085970;28;20225;-84
2022/07/31 07:52:24;;;;;;;1.90;1.80;;;;;;;;;;5077491;28;20261;-83
2022/07/31 07:54:51;;;;;;;3.08;2.20;;;;;;;;;;5077322;28;20198;-82
2022/07/31 07:57:19;;;;;;;4.55;2.10;;;;;;;;;;5079092;28;20240;-84
2022/07/31 07:59:47;;;;;;;2.70;1.77;;;;;;;;;;5077499;28;20693;-83
2022/07/31 08:02:14;;;;;;;1.90;1.77;;;;;;;;;;5093130;28;20283;-83
2022/07/31 08:04:41;;;;;;;2.13;1.95;;;;;;;;;;5088225;28;20217;-81
2022/07/31 08:07:10;;;;;;;2.00;1.90;;;;;;;;;;5074240;28;20232;-82
2022/07/31 08:09:37;;;;;;;2.72;1.80;;;;;;;;;;5075023;28;20248;-82
2022/07/31 08:12:05;;;;;;;2.10;1.90;;;;;;;;;;5073877;28;20213;-82
2022/07/31 08:14:32;;;;;;;2.17;1.90;;;;;;;;;;5075095;28;20301;-82
2022/07/31 08:16:59;;;;;;;1.90;1.80;;;;;;;;;;5090816;28;20266;-83
2022/07/31 08:19:26;;;;;;;3.63;2.10;;;;;;;;;;5086106;28;20205;-81
2022/07/31 08:21:53;;;;;;;2.55;1.70;;;;;;;;;;5083658;28;20208;-81
2022/07/31 08:24:21;;;;;;;1.90;1.60;;;;;;;;;;5096254;28;20208;-81
2022/07/31 08:29:32;;;;;;;5.38;1.98;;;;;;;;;;5083307;28;20323;-82
2022/07/31 08:32:00;;;;;;;2.90;2.00;;;;;;;;;;5091539;28;20193;-83
2022/07/31 08:34:27;;;;;;;2.85;1.80;;;;;;;;;;5080025;28;20208;-84
2022/07/31 08:36:54;;;;;;;1.95;1.80;;;;;;;;;;5083878;28;20224;-84
2022/07/31 08:39:22;;;;;;;1.77;1.67;;;;;;;;;;5092782;28;20200;-83
2022/07/31 08:41:50;;;;;;;2.10;2.00;;;;;;;;;;5089286;28;20201;-83
2022/07/31 08:44:17;;;;;;;3.10;1.98;;;;;;;;;;5092480;28;20248;-82
2022/07/31 08:46:44;;;;;;;2.20;2.00;;;;;;;;;;5089006;28;20205;-81
2022/07/31 08:49:13;;;;;;;3.58;2.00;;;;;;;;;;5072143;28;20307;-81
2022/07/31 08:51:41;;;;;;;3.38;1.95;;;;;;;;;;5073026;28;20682;-83
2022/07/31 08:54:10;;;;;;;1.92;1.83;;;;;;;;;;5090648;28;20233;-82
2022/07/31 08:56:39;;;;;;;2.25;1.80;;;;;;;;;;5092083;28;20240;-83
2022/07/31 08:59:06;;;;;;;2.28;2.08;;;;;;;;;;5088958;28;20231;-83
2022/07/31 09:01:34;;;;;;;4.00;1.85;;;;;;;;;;5092934;28;20212;-83
2022/07/31 09:04:05;;;;;;;2.63;2.25;;;;;;;;;;5092732;28;20236;-82
2022/07/31 09:06:33;;;;;;;1.98;1.77;;;;;;;;;;5093648;28;20204;-85
2022/07/31 09:09:00;;;;;;;2.58;1.88;;;;;;;;;;5087140;28;20229;-80
2022/07/31 09:11:27;;;;;;;1.80;1.70;;;;;;;;;;5083274;28;20236;-81
2022/07/31 09:13:56;;;;;;;1.92;1.83;;;;;;;;;;5073750;28;20658;-78
2022/07/31 09:16:23;;;;;;;4.72;2.00;;;;;;;;;;5092344;28;20209;-83
2022/07/31 09:18:57;;;;;;;2.00;1.90;;;;;;;;;;5092728;28;20243;-84
2022/07/31 09:21:24;;;;;;;2.22;1.92;;;;;;;;;;5092108;28;20675;-83
2022/07/31 09:23:53;;;;;;;4.40;1.98;;;;;;;;;;5082599;28;20628;-82
2022/07/31 09:26:20;;;;;;;2.03;1.60;;;;;;;;;;5074103;28;20202;-82
2022/07/31 09:28:49;;;;;;;1.80;1.70;;;;;;;;;;5075508;28;20247;-83
2022/07/31 09:31:18;;;;;;;2.75;2.08;;;;;;;;;;5072941;28;20729;-83
2022/07/31 09:33:46;;;;;;;1.77;1.67;;;;;;;;;;5085695;28;20225;-82
2022/07/31 09:36:13;;;;;;;2.65;1.77;;;;;;;;;;5089694;28;20802;-84
2022/07/31 09:38:41;;;;;;;2.08;1.70;;;;;;;;;;5082601;28;20236;-83
2022/07/31 09:41:09;;;;;;;1.90;1.70;;;;;;;;;;5092514;28;20696;-83
2022/07/31 09:43:37;;;;;;;3.53;1.77;;;;;;;;;;5079470;28;20611;-83
2022/07/31 09:46:05;;;;;;;3.72;2.00;;;;;;;;;;5083395;28;21551;-82
2022/07/31 09:48:34;;;;;;;1.85;1.70;;;;;;;;;;5080223;28;20339;-82
2022/07/31 09:51:02;;;;;;;1.83;1.70;;;;;;;;;;5091668;28;20231;-83
2022/07/31 09:53:39;;;;;;;3.10;2.00;;;;;;;;;;5087722;28;20236;-84
2022/07/31 09:56:07;;;;;;;3.88;1.77;;;;;;;;;;5072643;28;20213;-85
2022/07/31 09:58:34;;;;;;;1.70;1.60;;;;;;;;;;5073793;28;20237;-85
2022/07/31 10:01:01;;;;;;;6.75;3.00;;;;;;;;;;5091491;28;20207;-86
2022/07/31 10:03:30;;;;;;;2.92;1.92;;;;;;;;;;5091994;28;20236;-85
2022/07/31 10:05:58;;;;;;;2.33;1.63;;;;;;;;;;5091984;28;20212;-85
2022/07/31 10:08:26;;;;;;;3.30;1.70;;;;;;;;;;5091273;28;20313;-85
2022/07/31 10:10:54;;;;;;;2.83;1.88;;;;;;;;;;5080881;28;20228;-84
2022/07/31 10:13:21;;;;;;;1.83;1.55;;;;;;;;;;5082077;28;20232;-85
2022/07/31 10:15:51;;;;;;;1.67;1.58;;;;;;;;;;5092268;28;20192;-85
2022/07/31 10:18:18;;;;;;;1.80;1.50;;;;;;;;;;5091290;28;20233;-85
2022/07/31 10:20:51;;;;;;;2.83;1.95;;;;;;;;;;5091219;28;20200;-86
2022/07/31 10:23:22;;;;;;;2.05;1.73;;;;;;;;;;5091089;28;20239;-85
2022/07/31 10:25:50;;;;;;;1.95;1.67;;;;;;;;;;5092100;28;20258;-85
2022/07/31 10:28:18;;;;;;;1.95;1.50;;;;;;;;;;5084833;28;20235;-86
2022/07/31 10:30:46;;;;;;;1.58;1.48;;;;;;;;;;5072634;28;20221;-86
2022/07/31 10:33:13;;;;;;;3.55;1.50;;;;;;;;;;5090175;28;20982;-86
2022/07/31 10:35:44;;;;;;;1.60;1.50;;;;;;;;;;5091634;28;20200;-85
2022/07/31 10:38:12;;;;;;;1.88;1.30;;;;;;;;;;5091430;28;20236;-86
2022/07/31 10:40:44;;;;;;;2.20;1.50;;;;;;;;;;5088100;28;20612;-84
2022/07/31 10:43:19;;;;;;;1.17;1.15;;;;;;;;;;5090624;28;20309;-85
2022/07/31 10:45:46;;;;;;;1.10;1.00;;;;;;;;;;5089398;28;20299;-85
2022/07/31 10:48:14;;;;;;;2.47;1.52;;;;;;;;;;5072733;28;20241;-84
2022/07/31 10:50:41;;;;;;;1.63;1.50;;;;;;;;;;5082507;28;20221;-85
2022/07/31 10:53:08;;;;;;;1.25;1.15;;;;;;;;;;5087062;28;20735;-85
2022/07/31 10:55:35;;;;;;;1.30;1.20;;;;;;;;;;5085563;28;20202;-85
2022/07/31 10:58:11;;;;;;;1.40;1.20;;;;;;;;;;5072249;28;20241;-85
2022/07/31 11:00:39;;;;;;;1.80;1.08;;;;;;;;;;5080154;28;20610;-86
2022/07/31 11:03:12;;;;;;;1.50;1.40;;;;;;;;;;5074137;28;20708;-85
2022/07/31 11:05:40;;;;;;;2.67;1.42;;;;;;;;;;5093935;28;20204;-86
2022/07/31 11:08:07;;;;;;;3.10;1.90;;;;;;;;;;5084961;28;20632;-83
2022/07/31 11:10:35;;;;;;;4.93;1.65;;;;;;;;;;5092737;28;20233;-84
2022/07/31 11:13:03;;;;;;;1.85;1.50;;;;;;;;;;5093686;28;20259;-83
2022/07/31 11:15:32;;;;;;;3.55;1.73;;;;;;;;;;5094846;28;20205;-83
2022/07/31 11:18:00;;;;;;;2.63;1.48;;;;;;;;;;5093426;28;20237;-84
2022/07/31 11:20:29;;;;;;;1.60;1.50;;;;;;;;;;5094206;28;20699;-85
2022/07/31 11:22:58;;;;;;;4.15;1.50;;;;;;;;;;5091057;28;20757;-85
2022/07/31 11:25:28;;;;;;;1.40;1.30;;;;;;;;;;5094311;28;20204;-85
2022/07/31 11:27:55;;;;;;;2.08;1.30;;;;;;;;;;5093649;28;20295;-85
2022/07/31 11:30:22;;;;;;;1.45;1.30;;;;;;;;;;5094261;28;20236;-85
2022/07/31 11:32:51;;;;;;;1.45;1.30;;;;;;;;;;5093538;28;20233;-84
2022/07/31 11:35:25;;;;;;;1.48;1.30;;;;;;;;;;5094273;28;20624;-85
2022/07/31 11:37:52;;;;;;;1.30;1.20;;;;;;;;;;5092465;28;20233;-84
2022/07/31 11:40:19;;;;;;;0.95;0.90;;;;;;;;;;5094973;28;20580;-85
2022/07/31 11:42:46;;;;;;;1.65;1.55;;;;;;;;;;5101117;28;20240;-85
2022/07/31 11:45:14;;;;;;;1.50;1.40;;;;;;;;;;5086553;28;20288;-84
2022/07/31 11:47:42;;;;;;;1.73;1.25;;;;;;;;;;5078062;28;20267;-83
2022/07/31 11:50:11;;;;;;;1.40;1.25;;;;;;;;;;5083748;28;20233;-84
2022/07/31 11:52:42;;;;;;;1.42;1.30;;;;;;;;;;5096681;28;20270;-83
2022/07/31 11:55:10;;;;;;;2.03;1.60;;;;;;;;;;5095177;28;20292;-82
2022/07/31 11:57:37;;;;;;;2.50;1.77;;;;;;;;;;5095806;28;20233;-84
2022/07/31 12:00:07;;;;;;;1.25;1.23;;;;;;;;;;5096053;28;20204;-83
2022/07/31 12:02:34;;;;;;;1.67;1.23;;;;;;;;;;5106627;28;20790;-82
2022/07/31 12:05:03;;;;;;;1.15;1.15;;;;;;;;;;5108742;28;20209;-82
2022/07/31 12:07:32;;;;;;;2.47;1.33;;;;;;;;;;5102357;28;20286;-83
2022/07/31 12:10:00;;;;;;;1.67;1.50;;;;;;;;;;5101108;28;20677;-83
2022/07/31 12:12:27;;;;;;;2.33;1.63;;;;;;;;;;5096265;28;20235;-82
2022/07/31 12:14:54;;;;;;;4.63;1.65;;;;;;;;;;5101745;28;20230;-85
2022/07/31 12:17:22;;;;;;;3.15;1.65;;;;;;;;;;5099974;28;20233;-85
2022/07/31 12:19:49;;;;;;;1.63;1.30;;;;;;;;;;5100784;28;20197;-85
2022/07/31 12:22:16;;;;;;;1.67;1.33;;;;;;;;;;5095465;28;20767;-85
2022/07/31 12:24:45;;;;;;;2.10;1.42;;;;;;;;;;5093880;28;20615;-86
2022/07/31 12:27:15;;;;;;;1.88;1.77;;;;;;;;;;5094683;28;20240;-85
2022/07/31 12:29:42;;;;;;;1.45;1.27;;;;;;;;;;5093412;28;20201;-84
2022/07/31 12:32:09;;;;;;;1.58;1.40;;;;;;;;;;5093164;28;20205;-85
2022/07/31 12:34:37;;;;;;;2.00;1.48;;;;;;;;;;5108826;28;20208;-82
2022/07/31 12:37:05;;;;;;;2.97;2.25;;;;;;;;;;5095740;28;20221;-84
2022/07/31 12:39:35;;;;;;;1.35;1.27;;;;;;;;;;5094118;28;20193;-85
2022/07/31 12:42:04;;;;;;;1.45;1.35;;;;;;;;;;5093090;28;20204;-85
2022/07/31 12:44:31;;;;;;;1.38;1.27;;;;;;;;;;5093865;28;20201;-85
2022/07/31 12:46:58;;;;;;;2.20;1.10;;;;;;;;;;5092754;28;20232;-86
2022/07/31 12:49:25;;;;;;;2.45;1.00;;;;;;;;;;5094761;28;20204;-86
2022/07/31 12:51:52;;;;;;;4.07;1.65;;;;;;;;;;5093053;28;20220;-83
2022/07/31 12:54:19;;;;;;;1.88;1.20;;;;;;;;;;5093018;28;20215;-83
2022/07/31 12:56:46;;;;;;;2.28;1.23;;;;;;;;;;5093266;28;20204;-82
2022/07/31 12:59:15;;;;;;;1.10;1.10;;;;;;;;;;5092103;28;20711;-83
2022/07/31 13:01:43;;;;;;;1.85;1.50;;;;;;;;;;5093136;28;20193;-83
2022/07/31 13:04:10;;;;;;;1.20;1.20;;;;;;;;;;5078275;28;20229;-83
2022/07/31 13:06:37;;;;;;;1.50;1.40;;;;;;;;;;5073495;28;20220;-83
2022/07/31 13:09:04;;;;;;;1.50;1.40;;;;;;;;;;5072259;28;20240;-83
2022/07/31 13:11:32;;;;;;;1.55;1.45;;;;;;;;;;5072867;28;20320;-85
2022/07/31 13:13:59;;;;;;;1.38;1.27;;;;;;;;;;5072243;28;20643;-84
2022/07/31 13:16:27;;;;;;;1.60;1.50;;;;;;;;;;5073493;28;20216;-85
2022/07/31 13:18:55;;;;;;;1.27;1.27;;;;;;;;;;5072647;28;20237;-84
2022/07/31 13:21:22;;;;;;;1.30;1.20;;;;;;;;;;5074104;28;20190;-85
2022/07/31 13:23:49;;;;;;;1.20;1.20;;;;;;;;;;5074037;28;20241;-84
2022/07/31 13:26:16;;;;;;;1.38;1.27;;;;;;;;;;5074190;28;20231;-84
2022/07/31 13:28:43;;;;;;;2.05;1.45;;;;;;;;;;5072769;28;20244;-85
2022/07/31 13:31:10;;;;;;;1.25;1.15;;;;;;;;;;5075296;28;20225;-84
2022/07/31 13:33:38;;;;;;;2.97;1.30;;;;;;;;;;5074766;28;20301;-85
2022/07/31 13:36:06;;;;;;;1.50;1.40;;;;;;;;;;5082458;28;20197;-83
2022/07/31 13:38:33;;;;;;;2.72;1.70;;;;;;;;;;5095703;28;20244;-84
2022/07/31 13:43:45;;;;;;;1.73;1.60;;;;;;;;;;5092526;28;20258;-86
2022/07/31 13:46:12;;;;;;;2.50;2.00;;;;;;;;;;5082334;28;20209;-83
2022/07/31 13:48:41;;;;;;;1.80;1.35;;;;;;;;;;5082380;28;20227;-85
2022/07/31 13:51:08;;;;;;;1.38;1.27;;;;;;;;;;5072764;28;20233;-85
2022/07/31 13:53:35;;;;;;;3.40;1.60;;;;;;;;;;5072703;28;20243;-84
2022/07/31 13:56:02;;;;;;;3.00;1.50;;;;;;;;;;5073345;28;20350;-85
2022/07/31 13:58:30;;;;;;;1.50;1.40;;;;;;;;;;5072618;28;20270;-84
2022/07/31 14:00:57;;;;;;;1.20;1.10;;;;;;;;;;5072489;28;20665;-84
2022/07/31 14:03:24;;;;;;;1.20;1.10;;;;;;;;;;5072044;28;20233;-84
2022/07/31 14:05:53;;;;;;;1.05;1.05;;;;;;;;;;5074928;28;20209;-83
2022/07/31 14:08:20;;;;;;;0.80;0.80;;;;;;;;;;5082817;28;20312;-84
2022/07/31 14:10:48;;;;;;;3.70;1.60;;;;;;;;;;5087683;28;20237;-83
2022/07/31 14:13:15;;;;;;;1.20;1.10;;;;;;;;;;5093585;28;20608;-86
2022/07/31 14:15:43;;;;;;;2.05;1.17;;;;;;;;;;5074437;28;20236;-86
2022/07/31 14:18:10;;;;;;;2.30;1.42;;;;;;;;;;5077236;28;20225;-86
2022/07/31 14:20:37;;;;;;;1.38;1.17;;;;;;;;;;5085889;28;20203;-85
2022/07/31 14:23:06;;;;;;;1.50;1.23;;;;;;;;;;5090993;28;20290;-84
2022/07/31 14:25:34;;;;;;;1.30;1.27;;;;;;;;;;5071643;28;20731;-85
2022/07/31 14:28:01;;;;;;;1.00;0.98;;;;;;;;;;5070663;28;20244;-85
2022/07/31 14:30:28;;;;;;;4.45;1.17;;;;;;;;;;5071797;28;20201;-85
2022/07/31 14:32:55;;;;;;;1.58;1.25;;;;;;;;;;5072678;28;20263;-83
2022/07/31 14:35:22;;;;;;;1.77;1.30;;;;;;;;;;5075895;28;20287;-82
2022/07/31 14:37:49;;;;;;;1.30;1.20;;;;;;;;;;5092047;28;20326;-83
2022/07/31 14:40:18;;;;;;;1.42;1.30;;;;;;;;;;5096754;28;20208;-84
2022/07/31 14:42:45;;;;;;;1.73;1.35;;;;;;;;;;5094840;28;20243;-81
2022/07/31 14:45:12;;;;;;;2.58;1.38;;;;;;;;;;5100651;28;20209;-81
2022/07/31 14:47:39;;;;;;;1.17;1.13;;;;;;;;;;5094471;28;20775;-83
2022/07/31 14:50:07;;;;;;;1.40;1.30;;;;;;;;;;5095297;28;20684;-82
2022/07/31 14:52:34;;;;;;;3.28;1.15;;;;;;;;;;5095693;28;20236;-83